Time;durP1;ratioP1;P1;durP2;ratioP2;P2;SDS_P1;SDS_P2;PMS_P1;PMS_P2;Temp;Humidity;BMP_temperature;BMP_pressure;BME280_temperature;BME280_humidity;BME280_pressure;Samples;Min_cycle;Max_cycle;Signal;HPM_P1;HPM_P2
2021/10/23 00:01:22;;;;;;;5.37;2.30;;;16.30;46.70;;;;;;5051243;28;20228;-51
2021/10/23 00:03:47;;;;;;;4.13;2.73;;;16.10;47.20;;;;;;5053233;28;21749;-51
2021/10/23 00:06:13;;;;;;;4.13;2.73;;;16.20;47.20;;;;;;5051543;28;20199;-51
2021/10/23 00:08:39;;;;;;;3.13;2.37;;;16.30;46.80;;;;;;5050945;28;20202;-49
2021/10/23 00:11:05;;;;;;;5.87;2.23;;;16.30;46.40;;;;;;5049748;28;20567;-50
2021/10/23 00:13:30;;;;;;;7.13;2.40;;;16.30;46.30;;;;;;5048436;28;20488;-51
2021/10/23 00:15:56;;;;;;;5.03;2.47;;;16.40;46.80;;;;;;5052433;28;20585;-51
2021/10/23 00:18:22;;;;;;;2.70;2.00;;;16.30;46.70;;;;;;5054732;28;20199;-51
2021/10/23 00:20:48;;;;;;;3.73;2.40;;;16.40;46.90;;;;;;5054362;28;20215;-49
2021/10/23 00:23:14;;;;;;;8.03;2.73;;;16.40;47.50;;;;;;5052233;28;20968;-51
2021/10/23 00:25:39;;;;;;;2.70;2.20;;;16.40;47.60;;;;;;5060372;28;20269;-50
2021/10/23 00:28:05;;;;;;;2.73;2.20;;;16.50;46.90;;;;;;5054684;28;20439;-51
2021/10/23 00:30:30;;;;;;;5.10;2.63;;;16.50;46.50;;;;;;5047501;28;20196;-50
2021/10/23 00:33:01;;;;;;;5.60;2.23;;;16.50;46.60;;;;;;5057744;28;20246;-47
2021/10/23 00:35:28;;;;;;;5.23;2.67;;;16.50;46.40;;;;;;5049566;28;20192;-51
2021/10/23 00:37:53;;;;;;;5.13;2.80;;;16.50;46.50;;;;;;5057633;28;20457;-47
2021/10/23 00:40:20;;;;;;;7.30;2.67;;;16.40;46.60;;;;;;5039752;28;20479;-50
2021/10/23 00:42:45;;;;;;;4.57;2.43;;;16.30;46.70;;;;;;5047542;28;20200;-49
2021/10/23 00:45:11;;;;;;;3.70;2.20;;;16.30;46.90;;;;;;5055407;28;20434;-50
2021/10/23 00:47:37;;;;;;;2.87;1.70;;;16.20;47.20;;;;;;5045109;28;20189;-50
2021/10/23 00:50:03;;;;;;;3.23;1.87;;;16.10;47.40;;;;;;5049894;28;20238;-50
2021/10/23 00:52:29;;;;;;;3.17;1.97;;;16.10;47.50;;;;;;5049706;28;20216;-47
2021/10/23 00:54:55;;;;;;;5.50;2.40;;;16.10;47.30;;;;;;5045898;28;20435;-50
2021/10/23 00:57:21;;;;;;;4.33;1.97;;;16.10;47.50;;;;;;5038483;28;20189;-51
2021/10/23 00:59:47;;;;;;;5.30;2.30;;;16.00;47.60;;;;;;5040056;28;20648;-51
2021/10/23 01:02:12;;;;;;;3.73;2.20;;;16.00;47.50;;;;;;5047020;28;20439;-47
2021/10/23 01:04:40;;;;;;;2.83;2.10;;;16.00;47.60;;;;;;5051501;28;21009;-50
2021/10/23 01:07:06;;;;;;;3.23;1.87;;;15.90;47.60;;;;;;5044406;28;20197;-49
2021/10/23 01:09:37;;;;;;;5.57;2.60;;;15.80;48.00;;;;;;5048939;28;20450;-50
2021/10/23 01:12:08;;;;;;;4.60;2.00;;;15.80;48.90;;;;;;5045196;28;20522;-52
2021/10/23 01:14:33;;;;;;;2.70;1.90;;;15.70;49.90;;;;;;5046242;28;20957;-47
2021/10/23 01:16:59;;;;;;;6.10;2.47;;;15.70;49.40;;;;;;5050864;28;20439;-52
2021/10/23 01:19:25;;;;;;;4.40;2.33;;;15.80;48.80;;;;;;5042345;28;20232;-48
2021/10/23 01:21:52;;;;;;;7.60;2.20;;;15.90;48.80;;;;;;5047998;28;20283;-52
2021/10/23 01:24:19;;;;;;;4.33;2.00;;;16.00;48.20;;;;;;5041780;28;22079;-51
2021/10/23 01:26:45;;;;;;;2.60;2.00;;;16.00;48.20;;;;;;5045280;28;20475;-51
2021/10/23 01:29:13;;;;;;;2.50;1.77;;;16.00;48.00;;;;;;5042608;28;20485;-48
2021/10/23 01:31:39;;;;;;;7.77;3.50;;;16.10;47.70;;;;;;5039950;28;20431;-49
2021/10/23 01:34:13;;;;;;;3.40;2.00;;;16.00;47.50;;;;;;5058804;28;20438;-48
2021/10/23 01:36:44;;;;;;;3.80;2.47;;;16.10;47.60;;;;;;5045718;28;20811;-51
2021/10/23 01:39:10;;;;;;;5.83;2.40;;;16.10;47.70;;;;;;5045506;28;20841;-47
2021/10/23 01:41:36;;;;;;;7.00;2.47;;;16.10;48.00;;;;;;5039457;28;20863;-47
2021/10/23 01:44:02;;;;;;;3.30;2.07;;;16.10;48.50;;;;;;5041016;28;20524;-51
2021/10/23 01:46:28;;;;;;;3.97;2.00;;;16.10;48.00;;;;;;5039743;28;20216;-50
2021/10/23 01:48:53;;;;;;;3.60;2.23;;;16.10;48.30;;;;;;5045591;28;20548;-51
2021/10/23 01:51:19;;;;;;;5.10;2.40;;;16.10;48.40;;;;;;5052581;28;20208;-49
2021/10/23 01:53:44;;;;;;;4.10;1.93;;;16.10;48.20;;;;;;5056610;28;20200;-50
2021/10/23 01:56:10;;;;;;;4.57;1.90;;;16.10;47.90;;;;;;5044412;28;20193;-52
2021/10/23 01:58:36;;;;;;;6.43;3.13;;;16.10;47.80;;;;;;5039903;28;20272;-51
2021/10/23 02:01:01;;;;;;;5.47;2.17;;;16.10;47.80;;;;;;5043144;28;20269;-47
2021/10/23 02:03:27;;;;;;;6.20;2.50;;;16.10;47.80;;;;;;5052745;28;20235;-47
2021/10/23 02:05:52;;;;;;;3.87;2.23;;;16.00;47.90;;;;;;5058289;28;20242;-47
2021/10/23 02:08:18;;;;;;;2.70;2.10;;;16.00;48.30;;;;;;5051852;28;20913;-51
2021/10/23 02:10:44;;;;;;;8.30;2.43;;;16.00;48.40;;;;;;5047093;28;20561;-50
2021/10/23 02:13:09;;;;;;;4.60;2.10;;;16.00;48.50;;;;;;5050364;28;20188;-50
2021/10/23 02:15:35;;;;;;;2.17;1.90;;;16.00;49.00;;;;;;5048837;28;20656;-50
2021/10/23 02:18:00;;;;;;;3.30;1.63;;;16.00;49.30;;;;;;5049216;28;20192;-49
2021/10/23 02:20:27;;;;;;;5.20;2.70;;;16.00;49.10;;;;;;5051012;28;21280;-49
2021/10/23 02:22:52;;;;;;;5.40;2.47;;;15.90;48.80;;;;;;5049368;28;20200;-50
2021/10/23 02:25:18;;;;;;;4.27;2.17;;;16.00;49.00;;;;;;5044437;28;20453;-49
2021/10/23 02:27:44;;;;;;;3.10;2.20;;;16.10;49.10;;;;;;5051024;28;20193;-47
2021/10/23 02:30:11;;;;;;;7.23;2.00;;;16.10;49.60;;;;;;5051031;28;20207;-52
2021/10/23 02:32:37;;;;;;;4.57;2.27;;;16.10;49.30;;;;;;5046674;28;20672;-49
2021/10/23 02:35:03;;;;;;;5.30;2.20;;;16.10;49.00;;;;;;5052717;28;20441;-52
2021/10/23 02:37:29;;;;;;;4.60;2.97;;;16.10;48.50;;;;;;5053359;28;20431;-52
2021/10/23 02:39:55;;;;;;;5.33;3.17;;;16.10;48.80;;;;;;5055467;28;20439;-49
2021/10/23 02:42:20;;;;;;;4.90;2.63;;;16.00;49.10;;;;;;5053964;28;20681;-47
2021/10/23 02:44:46;;;;;;;6.87;2.50;;;16.10;48.60;;;;;;5054853;28;20196;-50
2021/10/23 02:47:11;;;;;;;2.13;1.93;;;16.10;48.80;;;;;;5053717;28;20654;-49
2021/10/23 02:49:37;;;;;;;5.13;2.50;;;16.10;49.30;;;;;;5056185;28;20591;-49
2021/10/23 02:52:04;;;;;;;4.53;2.17;;;16.10;48.90;;;;;;5049370;28;20237;-51
2021/10/23 02:54:30;;;;;;;2.70;2.07;;;16.10;48.50;;;;;;5049501;28;20438;-52
2021/10/23 02:56:56;;;;;;;3.40;2.47;;;16.10;48.60;;;;;;5054117;28;20461;-52
2021/10/23 02:59:22;;;;;;;3.93;2.33;;;16.10;49.00;;;;;;5062255;28;20201;-51
2021/10/23 03:01:47;;;;;;;3.53;2.30;;;16.00;48.60;;;;;;5049645;28;20224;-50
2021/10/23 03:04:13;;;;;;;10.23;2.80;;;16.00;48.50;;;;;;5054425;28;20199;-52
2021/10/23 03:06:39;;;;;;;3.20;2.40;;;16.10;48.80;;;;;;5055253;28;20197;-52
2021/10/23 03:09:04;;;;;;;3.50;2.40;;;16.10;48.80;;;;;;5057245;28;20532;-52
2021/10/23 03:11:30;;;;;;;5.40;2.57;;;16.10;48.80;;;;;;5051570;28;20263;-49
2021/10/23 03:13:56;;;;;;;6.30;2.40;;;16.20;48.90;;;;;;5040619;28;20197;-51
2021/10/23 03:16:22;;;;;;;3.90;2.63;;;16.20;48.30;;;;;;5049676;28;20193;-52
2021/10/23 03:18:48;;;;;;;2.97;2.07;;;16.20;48.00;;;;;;5050606;28;20578;-51
2021/10/23 03:21:14;;;;;;;5.40;2.10;;;16.10;48.30;;;;;;5049245;28;20236;-47
2021/10/23 03:23:40;;;;;;;4.80;2.60;;;16.20;48.40;;;;;;5049706;28;20435;-47
2021/10/23 03:26:06;;;;;;;5.27;2.27;;;16.20;48.30;;;;;;5050999;28;20439;-50
2021/10/23 03:28:31;;;;;;;4.87;2.10;;;16.20;48.40;;;;;;5055748;28;20227;-48
2021/10/23 03:30:57;;;;;;;3.40;2.20;;;16.20;48.50;;;;;;5050995;28;20218;-51
2021/10/23 03:33:23;;;;;;;2.03;1.83;;;16.20;48.10;;;;;;5053800;28;20193;-47
2021/10/23 03:35:48;;;;;;;4.43;2.70;;;16.20;48.10;;;;;;5051556;28;20763;-47
2021/10/23 03:38:14;;;;;;;2.20;1.80;;;16.20;48.20;;;;;;5049065;28;20196;-51
2021/10/23 03:40:39;;;;;;;5.97;2.20;;;16.20;48.50;;;;;;5049116;28;20229;-50
2021/10/23 03:43:05;;;;;;;7.87;2.37;;;16.10;48.50;;;;;;5055129;28;20188;-51
2021/10/23 03:45:31;;;;;;;3.60;2.30;;;16.20;49.00;;;;;;5050892;28;20275;-51
2021/10/23 03:47:56;;;;;;;2.97;2.53;;;16.20;48.90;;;;;;5058355;28;20294;-48
2021/10/23 03:50:22;;;;;;;5.77;3.00;;;16.20;48.80;;;;;;5046555;28;20652;-51
2021/10/23 03:52:47;;;;;;;3.50;2.40;;;16.20;48.50;;;;;;5051097;28;20310;-52
2021/10/23 03:55:13;;;;;;;4.80;2.73;;;16.20;49.70;;;;;;5051499;28;20533;-51
2021/10/23 03:57:39;;;;;;;6.60;2.57;;;16.20;49.40;;;;;;5053781;28;20282;-51
2021/10/23 04:00:05;;;;;;;14.03;8.07;;;16.20;49.30;;;;;;5052697;28;20184;-50
2021/10/23 04:02:31;;;;;;;16.27;7.47;;;16.20;49.00;;;;;;5044936;28;20199;-51
2021/10/23 04:04:58;;;;;;;14.93;8.83;;;16.20;49.10;;;;;;5055557;28;20441;-50
2021/10/23 04:07:23;;;;;;;12.97;6.87;;;16.30;48.90;;;;;;5044429;28;20934;-50
2021/10/23 04:09:49;;;;;;;9.37;4.33;;;16.10;49.20;;;;;;5039240;28;20459;-51
2021/10/23 04:12:14;;;;;;;5.33;3.30;;;16.00;49.70;;;;;;5038145;28;20242;-52
2021/10/23 04:14:40;;;;;;;2.93;2.23;;;16.10;50.00;;;;;;5047673;28;20194;-52
2021/10/23 04:17:06;;;;;;;4.43;1.97;;;16.10;50.30;;;;;;5048638;28;20250;-51
2021/10/23 04:19:31;;;;;;;3.50;2.30;;;16.20;50.20;;;;;;5040264;28;20228;-51
2021/10/23 04:21:57;;;;;;;3.57;2.37;;;16.20;49.70;;;;;;5049912;28;20637;-51
2021/10/23 04:24:23;;;;;;;4.10;2.00;;;16.20;49.90;;;;;;5056888;28;20540;-50
2021/10/23 04:26:50;;;;;;;5.03;2.90;;;16.10;50.20;;;;;;5051039;28;20254;-47
2021/10/23 04:29:16;;;;;;;11.50;4.97;;;16.10;49.80;;;;;;5050660;28;20234;-51
2021/10/23 04:31:41;;;;;;;10.63;4.93;;;16.10;49.90;;;;;;5059425;28;20452;-50
2021/10/23 04:34:07;;;;;;;8.50;2.80;;;16.10;50.00;;;;;;5052033;28;20933;-51
2021/10/23 04:36:33;;;;;;;4.27;2.50;;;16.10;49.20;;;;;;5051391;28;20197;-50
2021/10/23 04:38:59;;;;;;;5.03;2.37;;;16.10;49.10;;;;;;5048859;28;20632;-51
2021/10/23 04:41:24;;;;;;;3.43;2.27;;;16.10;49.20;;;;;;5047117;28;20220;-51
2021/10/23 04:43:50;;;;;;;2.93;1.93;;;16.10;49.20;;;;;;5047373;28;20442;-52
2021/10/23 04:46:16;;;;;;;3.00;2.40;;;16.10;49.30;;;;;;5043339;28;20192;-47
2021/10/23 04:48:42;;;;;;;4.37;2.20;;;16.10;49.60;;;;;;5049508;28;20635;-49
2021/10/23 04:51:08;;;;;;;6.87;2.50;;;16.10;50.40;;;;;;5042106;28;20228;-51
2021/10/23 04:53:33;;;;;;;4.00;2.90;;;16.00;50.70;;;;;;5046722;28;20455;-50
2021/10/23 04:55:59;;;;;;;5.27;2.70;;;16.00;50.50;;;;;;5048819;28;20255;-49
2021/10/23 04:58:25;;;;;;;5.53;3.60;;;16.00;50.60;;;;;;5041899;28;20211;-47
2021/10/23 05:00:50;;;;;;;6.43;4.27;;;16.00;50.10;;;;;;5046606;28;20232;-47
2021/10/23 05:03:16;;;;;;;8.60;3.97;;;16.10;50.10;;;;;;5048877;28;20192;-50
2021/10/23 05:05:41;;;;;;;5.10;3.40;;;16.00;49.80;;;;;;5038535;28;20201;-50
2021/10/23 05:08:07;;;;;;;5.30;3.30;;;16.10;50.00;;;;;;5038668;28;20599;-47
2021/10/23 05:10:33;;;;;;;5.97;3.20;;;16.10;50.00;;;;;;5047322;28;20185;-50
2021/10/23 05:12:58;;;;;;;6.10;2.47;;;16.10;50.10;;;;;;5046078;28;20199;-51
2021/10/23 05:15:24;;;;;;;6.57;3.27;;;16.10;50.50;;;;;;5052084;28;20188;-49
2021/10/23 05:17:49;;;;;;;3.60;2.80;;;16.10;50.30;;;;;;5048205;28;20687;-47
2021/10/23 05:20:15;;;;;;;6.60;2.47;;;16.20;50.90;;;;;;5045805;28;20644;-49
2021/10/23 05:22:41;;;;;;;2.97;2.30;;;16.40;50.60;;;;;;5044736;28;21642;-50
2021/10/23 05:25:07;;;;;;;7.37;3.70;;;16.60;50.10;;;;;;5042411;28;20243;-49
2021/10/23 05:27:32;;;;;;;6.10;2.47;;;16.60;50.50;;;;;;5046011;28;20207;-47
2021/10/23 05:29:59;;;;;;;3.87;3.30;;;16.60;50.10;;;;;;5059560;28;20451;-48
2021/10/23 05:32:24;;;;;;;5.60;3.40;;;16.60;51.20;;;;;;5064954;28;20686;-47
2021/10/23 05:34:50;;;;;;;7.20;3.53;;;16.50;50.20;;;;;;5044158;28;20440;-47
2021/10/23 05:37:16;;;;;;;6.33;3.10;;;16.50;50.40;;;;;;5044845;28;20188;-51
2021/10/23 05:39:42;;;;;;;5.10;2.80;;;16.50;50.00;;;;;;5035468;28;20200;-48
2021/10/23 05:42:08;;;;;;;5.50;2.87;;;16.60;50.40;;;;;;5033555;28;20483;-51
2021/10/23 05:44:33;;;;;;;7.30;3.77;;;16.50;49.80;;;;;;5043432;28;20197;-46
2021/10/23 05:46:59;;;;;;;5.53;2.97;;;16.50;49.60;;;;;;5043147;28;20442;-50
2021/10/23 05:49:25;;;;;;;5.30;2.80;;;16.50;49.60;;;;;;5049994;28;20200;-48
2021/10/23 05:51:51;;;;;;;7.40;2.70;;;16.50;49.80;;;;;;5045333;28;20242;-49
2021/10/23 05:54:17;;;;;;;3.37;2.50;;;16.50;49.90;;;;;;5042357;28;20510;-47
2021/10/23 05:56:42;;;;;;;6.33;2.30;;;16.40;48.90;;;;;;5048233;28;20427;-47
2021/10/23 05:59:12;;;;;;;7.40;2.77;;;16.20;50.00;;;;;;5039199;28;20221;-50
2021/10/23 06:01:43;;;;;;;5.77;2.53;;;16.20;50.40;;;;;;5040269;28;20584;-47
2021/10/23 06:04:09;;;;;;;6.00;3.27;;;16.30;50.00;;;;;;5044391;28;20918;-48
2021/10/23 06:06:35;;;;;;;4.20;2.77;;;16.50;50.10;;;;;;5032016;28;20935;-48
2021/10/23 06:09:03;;;;;;;4.50;2.33;;;16.50;50.20;;;;;;5045659;28;20485;-48
2021/10/23 06:11:28;;;;;;;3.60;2.20;;;16.60;49.70;;;;;;5053866;28;20196;-46
2021/10/23 06:13:56;;;;;;;5.57;2.50;;;16.80;49.40;;;;;;5047836;28;20435;-47
2021/10/23 06:16:22;;;;;;;4.57;2.30;;;16.80;50.00;;;;;;5049996;28;20271;-46
2021/10/23 06:18:47;;;;;;;4.03;2.73;;;16.80;50.30;;;;;;5048282;28;20553;-49
2021/10/23 06:21:13;;;;;;;4.80;3.07;;;16.80;49.70;;;;;;5049058;28;20586;-52
2021/10/23 06:23:39;;;;;;;5.03;2.73;;;16.90;49.60;;;;;;5046589;28;20299;-47
2021/10/23 06:26:04;;;;;;;5.83;2.97;;;16.80;48.90;;;;;;5046908;28;20193;-47
2021/10/23 06:28:30;;;;;;;2.60;2.40;;;16.40;50.40;;;;;;5055878;28;20199;-47
2021/10/23 06:30:55;;;;;;;5.50;2.67;;;16.40;51.00;;;;;;5047338;28;20740;-50
2021/10/23 06:33:21;;;;;;;5.77;3.30;;;16.40;50.70;;;;;;5049812;28;20271;-51
2021/10/23 06:35:47;;;;;;;5.00;3.53;;;16.20;50.90;;;;;;5042853;28;20225;-46
2021/10/23 06:38:13;;;;;;;6.13;3.60;;;16.30;51.00;;;;;;5044895;28;20195;-46
2021/10/23 06:40:38;;;;;;;10.80;4.40;;;16.40;50.40;;;;;;5045913;28;20299;-48
2021/10/23 06:43:04;;;;;;;7.33;3.57;;;16.60;49.90;;;;;;5044036;28;20840;-49
2021/10/23 06:45:30;;;;;;;2.83;2.30;;;16.70;50.10;;;;;;5037981;28;20193;-46
2021/10/23 06:47:57;;;;;;;4.27;2.30;;;16.70;50.00;;;;;;5040081;28;20232;-47
2021/10/23 06:50:23;;;;;;;3.30;2.83;;;16.70;50.10;;;;;;5043683;28;20447;-50
2021/10/23 06:52:49;;;;;;;4.20;2.83;;;16.80;50.50;;;;;;5053764;28;20466;-50
2021/10/23 06:55:14;;;;;;;6.67;3.00;;;16.60;49.80;;;;;;5051248;28;20442;-47
2021/10/23 06:57:40;;;;;;;4.13;2.60;;;16.70;50.10;;;;;;5052364;28;20435;-46
2021/10/23 07:00:07;;;;;;;4.70;2.80;;;16.70;50.00;;;;;;5051643;28;20212;-49
2021/10/23 07:02:37;;;;;;;4.13;2.57;;;16.80;49.70;;;;;;5052141;28;20652;-46
2021/10/23 07:05:04;;;;;;;4.13;2.23;;;16.60;49.40;;;;;;5053404;28;20435;-48
2021/10/23 07:07:30;;;;;;;3.80;2.43;;;16.60;50.30;;;;;;5049974;28;20443;-49
2021/10/23 07:09:55;;;;;;;6.03;2.80;;;16.40;49.90;;;;;;5044472;28;20725;-46
2021/10/23 07:12:21;;;;;;;5.20;2.57;;;16.40;50.80;;;;;;5053848;28;20193;-47
2021/10/23 07:14:47;;;;;;;3.30;2.27;;;16.40;51.10;;;;;;5052945;28;20193;-51
2021/10/23 07:17:12;;;;;;;2.93;2.50;;;16.50;50.90;;;;;;5052985;28;20196;-51
2021/10/23 07:19:38;;;;;;;4.13;2.40;;;16.60;50.90;;;;;;5053084;28;20596;-47
2021/10/23 07:22:04;;;;;;;6.80;2.60;;;16.80;50.30;;;;;;5052683;28;20224;-46
2021/10/23 07:24:29;;;;;;;3.87;2.70;;;16.90;49.90;;;;;;5052874;28;20568;-48
2021/10/23 07:26:55;;;;;;;3.87;2.27;;;17.00;49.30;;;;;;5052883;28;20193;-50
2021/10/23 07:29:20;;;;;;;5.40;3.77;;;17.20;49.00;;;;;;5051683;28;20193;-50
2021/10/23 07:31:46;;;;;;;5.70;3.63;;;17.30;48.60;;;;;;5053331;28;20239;-46
2021/10/23 07:34:12;;;;;;;2.40;2.20;;;17.40;48.40;;;;;;5053038;28;20196;-50
2021/10/23 07:36:37;;;;;;;3.70;2.33;;;17.40;47.80;;;;;;5055410;28;20196;-48
2021/10/23 07:39:03;;;;;;;6.57;3.10;;;17.40;48.60;;;;;;5055540;28;20262;-48
2021/10/23 07:41:29;;;;;;;4.40;2.97;;;17.60;47.90;;;;;;5052700;28;20228;-46
2021/10/23 07:43:55;;;;;;;3.80;2.80;;;17.80;47.60;;;;;;5053373;28;20419;-47
2021/10/23 07:46:20;;;;;;;4.57;2.73;;;18.00;47.30;;;;;;5052153;28;20241;-47
2021/10/23 07:48:47;;;;;;;6.87;2.87;;;18.20;46.80;;;;;;5052822;28;20194;-51
2021/10/23 07:51:14;;;;;;;3.00;2.07;;;18.30;46.70;;;;;;5052313;28;20244;-48
2021/10/23 07:53:40;;;;;;;3.00;2.20;;;18.30;46.10;;;;;;5053192;28;20518;-50
2021/10/23 07:56:06;;;;;;;5.80;2.23;;;18.30;46.00;;;;;;5050525;28;20419;-47
2021/10/23 07:58:31;;;;;;;7.13;2.77;;;18.40;45.70;;;;;;5052641;28;20439;-46
2021/10/23 08:00:58;;;;;;;5.10;3.20;;;18.40;45.40;;;;;;5051080;28;20232;-48
2021/10/23 08:03:24;;;;;;;7.37;3.00;;;18.30;45.60;;;;;;5052891;28;20600;-47
2021/10/23 08:05:49;;;;;;;5.83;3.47;;;18.30;45.50;;;;;;5052167;28;20500;-51
2021/10/23 08:08:15;;;;;;;8.73;2.93;;;18.40;46.00;;;;;;5052291;28;20636;-51
2021/10/23 08:10:41;;;;;;;6.30;2.57;;;18.30;45.10;;;;;;5052204;28;20188;-51
2021/10/23 08:13:06;;;;;;;7.77;3.20;;;18.30;46.40;;;;;;5052311;28;20275;-51
2021/10/23 08:15:33;;;;;;;5.30;2.90;;;18.30;46.00;;;;;;5052011;28;20296;-50
2021/10/23 08:17:59;;;;;;;3.93;2.33;;;18.30;46.00;;;;;;5052499;28;20546;-50
2021/10/23 08:20:25;;;;;;;5.67;2.83;;;18.30;45.90;;;;;;5051751;28;20486;-49
2021/10/23 08:22:51;;;;;;;3.93;2.50;;;18.30;45.70;;;;;;5050211;28;20435;-51
2021/10/23 08:25:17;;;;;;;5.37;3.20;;;18.20;46.00;;;;;;5051728;28;20422;-49
2021/10/23 08:27:44;;;;;;;5.13;2.80;;;18.20;46.00;;;;;;5046389;28;20249;-50
2021/10/23 08:30:13;;;;;;;5.53;2.77;;;18.20;46.00;;;;;;5064003;28;20199;-47
2021/10/23 08:32:41;;;;;;;3.53;3.20;;;18.30;45.80;;;;;;5050220;28;20435;-46
2021/10/23 08:35:08;;;;;;;5.43;3.17;;;18.40;45.60;;;;;;5051277;28;20431;-48
2021/10/23 08:37:33;;;;;;;8.63;3.40;;;18.30;45.70;;;;;;5051793;28;20415;-50
2021/10/23 08:39:59;;;;;;;3.83;2.93;;;18.30;46.40;;;;;;5051572;28;20535;-47
2021/10/23 08:42:25;;;;;;;5.40;2.67;;;18.40;45.70;;;;;;5052075;28;20216;-47
2021/10/23 08:44:52;;;;;;;3.93;2.73;;;18.60;45.00;;;;;;5050000;28;20627;-47
2021/10/23 08:47:19;;;;;;;7.17;2.90;;;18.60;44.90;;;;;;5051706;28;20543;-48
2021/10/23 08:49:46;;;;;;;6.63;2.47;;;18.80;45.00;;;;;;5049879;28;20423;-49
2021/10/23 08:52:13;;;;;;;6.03;2.40;;;18.80;44.80;;;;;;5046415;28;20446;-47
2021/10/23 08:54:41;;;;;;;8.17;2.50;;;18.80;44.70;;;;;;5050254;28;20851;-51
2021/10/23 08:57:07;;;;;;;2.50;2.07;;;18.80;44.60;;;;;;5051086;28;20936;-46
2021/10/23 08:59:32;;;;;;;3.00;2.37;;;18.90;44.30;;;;;;5049919;28;20529;-46
2021/10/23 09:02:00;;;;;;;4.20;2.93;;;18.90;44.80;;;;;;5047513;28;20581;-50
2021/10/23 09:04:27;;;;;;;6.03;2.80;;;19.00;44.90;;;;;;5038531;28;20637;-46
2021/10/23 09:06:53;;;;;;;4.90;2.70;;;19.00;45.00;;;;;;5039073;28;20439;-48
2021/10/23 09:09:19;;;;;;;5.67;2.40;;;19.20;45.00;;;;;;5043260;28;20447;-46
2021/10/23 09:11:47;;;;;;;4.07;2.80;;;19.30;44.60;;;;;;5047787;28;20446;-49
2021/10/23 09:14:37;;;;;;;4.07;2.10;;;19.30;44.70;;;;;;5047552;28;20192;-46
2021/10/23 09:17:08;;;;;;;10.60;2.53;;;19.40;44.60;;;;;;5045342;28;20471;-50
2021/10/23 09:19:38;;;;;;;3.50;2.50;;;19.50;44.90;;;;;;5045186;28;20493;-48
2021/10/23 09:22:06;;;;;;;6.20;2.80;;;19.50;44.40;;;;;;5043745;28;20522;-50
2021/10/23 09:24:32;;;;;;;5.97;2.33;;;19.60;44.30;;;;;;5041083;28;20428;-47
2021/10/23 09:26:58;;;;;;;5.47;2.40;;;19.80;44.10;;;;;;5069055;28;20434;-50
2021/10/23 09:29:25;;;;;;;4.53;2.70;;;20.00;44.60;;;;;;5053237;28;20443;-47
2021/10/23 09:31:51;;;;;;;3.90;3.00;;;20.20;43.90;;;;;;5048888;28;20454;-49
2021/10/23 09:34:19;;;;;;;7.97;3.50;;;20.50;43.80;;;;;;5050590;28;20436;-48
2021/10/23 09:36:52;;;;;;;4.73;3.30;;;20.70;42.90;;;;;;5051200;28;20424;-47
2021/10/23 09:39:26;;;;;;;6.13;2.77;;;20.80;42.70;;;;;;5050679;28;20438;-48
2021/10/23 09:42:13;;;;;;;4.03;2.90;;;20.80;43.10;;;;;;5047799;28;20479;-46
2021/10/23 09:45:05;;;;;;;2.90;2.40;;;20.70;41.50;;;;;;5047985;28;20435;-47
2021/10/23 09:47:39;;;;;;;3.77;3.00;;;20.70;42.40;;;;;;5050815;28;20431;-47
2021/10/23 09:50:14;;;;;;;4.53;2.40;;;20.70;44.00;;;;;;5050597;28;20435;-46
2021/10/23 09:53:01;;;;;;;3.83;3.07;;;21.00;44.00;;;;;;5043283;28;20439;-46
2021/10/23 09:55:33;;;;;;;4.70;2.97;;;21.30;42.90;;;;;;5050483;28;20435;-47
2021/10/23 09:58:25;;;;;;;2.77;2.17;;;21.30;41.90;;;;;;5049604;28;20435;-48
2021/10/23 10:00:55;;;;;;;5.40;3.07;;;21.50;41.60;;;;;;5048536;28;20491;-47
2021/10/23 10:03:23;;;;;;;4.87;2.30;;;21.50;41.60;;;;;;5060033;28;20457;-46
2021/10/23 10:06:07;;;;;;;4.10;2.77;;;21.50;41.50;;;;;;5070130;28;20434;-46
2021/10/23 10:08:34;;;;;;;3.13;2.37;;;21.50;41.40;;;;;;5070964;28;20859;-49
2021/10/23 10:11:00;;;;;;;6.57;2.60;;;21.50;40.50;;;;;;5068917;28;20866;-47
2021/10/23 10:13:26;;;;;;;7.00;2.97;;;21.50;40.50;;;;;;5056547;28;20522;-46
2021/10/23 10:15:58;;;;;;;5.10;2.60;;;21.50;40.60;;;;;;5050011;28;20846;-48
2021/10/23 10:18:25;;;;;;;2.57;2.30;;;21.50;40.70;;;;;;5051409;28;20602;-46
2021/10/23 10:20:53;;;;;;;3.70;2.60;;;21.50;41.60;;;;;;5070381;28;20486;-46
2021/10/23 10:23:20;;;;;;;3.47;2.47;;;21.50;41.20;;;;;;5061448;28;20866;-47
2021/10/23 10:26:23;;;;;;;3.00;2.00;;;21.70;39.80;;;;;;5050008;28;20525;-47
2021/10/23 10:32:12;;;;;;;4.00;2.17;;;21.70;37.80;;;;;;5047595;28;20451;-48
2021/10/23 10:43:05;;;;;;;3.97;2.50;;;21.70;39.70;;;;;;5050731;28;20439;-48
2021/10/23 10:45:40;;;;;;;3.13;2.80;;;21.80;39.50;;;;;;5058440;28;20468;-46
2021/10/23 10:48:26;;;;;;;5.30;3.37;;;21.90;40.00;;;;;;5070480;28;20433;-47
2021/10/23 10:50:52;;;;;;;3.90;2.60;;;22.00;40.00;;;;;;5054708;28;20514;-47
2021/10/23 10:53:22;;;;;;;2.97;2.20;;;22.20;39.90;;;;;;5050648;28;20502;-47
2021/10/23 10:55:55;;;;;;;4.87;2.63;;;22.20;40.30;;;;;;5048791;28;20196;-48
2021/10/23 10:58:41;;;;;;;4.03;2.80;;;22.20;39.10;;;;;;5054181;28;20431;-47
2021/10/23 11:01:21;;;;;;;3.53;2.13;;;22.10;38.10;;;;;;5053359;28;20520;-46
2021/10/23 11:03:54;;;;;;;2.83;2.47;;;22.00;38.50;;;;;;5052701;28;20778;-49
2021/10/23 11:06:34;;;;;;;2.43;2.23;;;21.80;38.50;;;;;;5052301;28;20447;-47
2021/10/23 11:11:47;;;;;;;4.00;2.40;;;21.60;38.90;;;;;;5053197;28;20435;-47
2021/10/23 11:14:25;;;;;;;3.83;2.43;;;21.40;38.90;;;;;;5053407;28;20552;-46
2021/10/23 11:16:55;;;;;;;43.90;31.00;;;21.60;38.40;;;;;;5051018;28;20439;-46
2021/10/23 11:19:30;;;;;;;10.43;6.10;;;21.80;38.40;;;;;;5048972;28;20919;-46
2021/10/23 11:21:59;;;;;;;106.43;56.77;;;21.70;37.70;;;;;;5053695;28;20490;-49
2021/10/23 11:24:30;;;;;;;10.43;6.33;;;21.70;37.70;;;;;;5053360;28;20458;-47
2021/10/23 11:26:56;;;;;;;5.23;3.23;;;21.70;37.00;;;;;;5050769;28;20446;-46
2021/10/23 11:29:25;;;;;;;4.30;2.50;;;21.80;37.70;;;;;;5047074;28;20436;-46
2021/10/23 11:31:52;;;;;;;11.13;5.67;;;21.80;37.20;;;;;;5037827;28;20455;-46
2021/10/23 11:34:31;;;;;;;7.10;4.03;;;21.90;36.30;;;;;;5035706;28;20482;-51
2021/10/23 11:37:01;;;;;;;22.47;11.83;;;22.00;36.00;;;;;;5033787;28;20950;-50
2021/10/23 11:39:31;;;;;;;10.27;3.93;;;22.10;39.90;;;;;;5041589;28;20451;-51
2021/10/23 11:42:26;;;;;;;7.83;4.33;;;22.50;39.30;;;;;;5050985;28;20475;-52
2021/10/23 11:45:18;;;;;;;7.23;3.70;;;22.90;38.60;;;;;;5038857;28;20470;-51
2021/10/23 11:47:43;;;;;;;5.07;4.23;;;23.20;37.60;;;;;;5032660;28;20573;-51
2021/10/23 11:50:21;;;;;;;4.70;2.87;;;23.40;36.80;;;;;;5047214;28;20431;-49
2021/10/23 11:52:58;;;;;;;3.43;3.03;;;23.60;35.70;;;;;;5051193;28;20215;-48
2021/10/23 11:55:38;;;;;;;5.80;3.50;;;23.80;35.50;;;;;;5044978;28;20439;-51
2021/10/23 11:58:06;;;;;;;5.63;2.53;;;23.80;36.20;;;;;;5047037;28;20486;-51
2021/10/23 12:00:41;;;;;;;4.90;2.60;;;23.80;35.50;;;;;;5041360;28;20526;-49
2021/10/23 12:03:09;;;;;;;4.80;2.43;;;23.90;35.50;;;;;;5050189;28;20439;-49
2021/10/23 12:05:44;;;;;;;5.50;2.80;;;23.90;34.90;;;;;;5039402;28;20439;-51
2021/10/23 12:08:15;;;;;;;2.37;2.17;;;23.90;34.60;;;;;;5050934;28;20477;-51
2021/10/23 12:11:02;;;;;;;4.17;3.30;;;23.90;34.50;;;;;;5037924;28;20443;-49
2021/10/23 12:14:02;;;;;;;4.27;2.40;;;23.90;33.20;;;;;;5075488;28;20443;-48
2021/10/23 12:16:37;;;;;;;3.63;2.50;;;23.80;32.80;;;;;;5015205;28;20989;-49
2021/10/23 12:19:10;;;;;;;3.23;2.27;;;23.70;33.00;;;;;;5045860;28;20839;-51
2021/10/23 12:22:03;;;;;;;3.27;2.10;;;23.60;32.40;;;;;;5049827;28;20479;-49
2021/10/23 12:24:42;;;;;;;3.03;2.23;;;23.40;32.60;;;;;;5045449;28;20439;-49
2021/10/23 12:27:10;;;;;;;8.73;3.37;;;23.40;32.40;;;;;;5045841;28;20428;-47
2021/10/23 12:29:41;;;;;;;3.27;1.90;;;23.30;31.70;;;;;;5042970;28;21257;-50
2021/10/23 12:32:08;;;;;;;6.00;2.30;;;23.30;31.60;;;;;;5048167;28;20566;-51
2021/10/23 12:34:55;;;;;;;31.13;17.57;;;23.40;31.70;;;;;;5052602;28;20773;-52
2021/10/23 12:37:27;;;;;;;18.47;10.93;;;23.50;31.70;;;;;;5050530;28;20508;-50
2021/10/23 12:40:08;;;;;;;13.03;6.80;;;23.60;30.80;;;;;;5045064;28;20477;-51
2021/10/23 12:42:45;;;;;;;23.20;15.10;;;23.70;32.30;;;;;;5038167;28;20522;-51
2021/10/23 12:45:16;;;;;;;11.23;6.93;;;23.80;31.70;;;;;;5036060;28;20444;-49
2021/10/23 12:47:41;;;;;;;4.93;2.77;;;23.80;31.70;;;;;;5046758;28;20435;-49
2021/10/23 12:50:09;;;;;;;3.60;2.70;;;23.80;31.90;;;;;;5063222;28;20481;-52
2021/10/23 12:52:36;;;;;;;3.10;2.33;;;23.70;31.60;;;;;;5046179;28;20197;-47
2021/10/23 12:55:02;;;;;;;5.53;3.00;;;23.60;32.10;;;;;;5048899;28;20431;-52
2021/10/23 12:57:29;;;;;;;6.40;3.73;;;23.40;31.80;;;;;;5049902;28;20530;-51
2021/10/23 12:59:57;;;;;;;2.40;1.93;;;23.40;35.10;;;;;;5040694;28;20427;-52
2021/10/23 13:02:22;;;;;;;2.40;1.27;;;23.50;35.40;;;;;;5075109;28;20519;-51
2021/10/23 13:04:48;;;;;;;4.47;2.00;;;23.60;33.20;;;;;;5050769;28;20467;-52